createdAt,value
2018-06-01T00:02:11.143Z,19.70
2018-06-01T00:04:54.164Z,20.60
2018-06-01T00:07:24.440Z,20.90
2018-06-01T00:09:58.297Z,20.70
2018-06-01T00:12:30.148Z,22.43
2018-06-01T00:15:00.657Z,21.40
2018-06-01T00:20:18.955Z,20.47
2018-06-01T00:22:50.129Z,20.80
2018-06-01T00:25:24.057Z,22.90
2018-06-01T00:28:02.529Z,21.23
2018-06-01T00:30:31.428Z,20.30
2018-06-01T00:33:02.640Z,22.10
2018-06-01T00:35:32.401Z,20.37
2018-06-01T00:38:01.105Z,18.90
2018-06-01T00:40:31.269Z,20.90
2018-06-01T00:43:01.080Z,22.73
2018-06-01T00:45:36.283Z,22.23
2018-06-01T00:48:08.126Z,20.93
2018-06-01T00:50:38.947Z,21.40
2018-06-01T00:53:07.180Z,21.93
2018-06-01T00:55:41.149Z,23.40
2018-06-01T00:58:13.569Z,23.67
2018-06-01T01:00:43.070Z,20.60
2018-06-01T01:03:12.779Z,21.20
2018-06-01T01:05:45.672Z,19.50
2018-06-01T01:08:15.799Z,21.80
2018-06-01T01:10:45.701Z,19.93
2018-06-01T01:13:18.732Z,19.00
2018-06-01T01:15:51.002Z,21.10
2018-06-01T01:18:21.735Z,20.77
2018-06-01T01:20:52.623Z,20.87
2018-06-01T01:26:00.274Z,22.10
2018-06-01T01:28:38.698Z,20.63
2018-06-01T01:31:11.529Z,22.07
2018-06-01T01:33:45.540Z,21.27
2018-06-01T01:36:20.131Z,21.00
2018-06-01T01:41:36.838Z,21.27
2018-06-01T01:44:09.835Z,22.33
2018-06-01T01:46:40.511Z,22.73
2018-06-01T01:49:26.607Z,20.67
2018-06-01T01:52:02.046Z,21.47
2018-06-01T01:54:39.726Z,20.90
2018-06-01T01:57:09.160Z,20.60
2018-06-01T01:59:41.531Z,23.80
2018-06-01T02:02:23.506Z,21.73
2018-06-01T02:07:49.620Z,21.37
2018-06-01T02:16:21.770Z,20.97
2018-06-01T02:23:13.277Z,22.50
2018-06-01T02:25:50.046Z,23.93
2018-06-01T02:28:19.935Z,23.20
2018-06-01T02:34:00.728Z,21.63
2018-06-01T02:36:39.988Z,21.63
2018-06-01T02:39:29.098Z,22.97
2018-06-01T02:41:58.618Z,22.93
2018-06-01T02:44:27.747Z,23.73
2018-06-01T02:46:56.146Z,23.70
2018-06-01T02:49:24.558Z,24.73
2018-06-01T02:51:54.404Z,23.13
2018-06-01T02:54:23.457Z,23.17
2018-06-01T02:56:53.531Z,22.93
2018-06-01T02:59:23.187Z,23.17
2018-06-01T03:01:52.598Z,23.47
2018-06-01T03:04:25.683Z,23.90
2018-06-01T03:07:20.278Z,23.00
2018-06-01T03:09:49.482Z,23.37
2018-06-01T03:12:17.543Z,24.63
2018-06-01T03:14:46.745Z,23.50
2018-06-01T03:17:15.444Z,24.13
2018-06-01T03:19:44.205Z,23.47
2018-06-01T03:22:14.203Z,24.43
2018-06-01T03:24:48.395Z,21.90
2018-06-01T03:27:21.099Z,23.13
2018-06-01T03:29:53.257Z,23.43
2018-06-01T03:32:25.768Z,28.67
2018-06-01T03:34:55.785Z,25.93
2018-06-01T03:37:29.147Z,25.73
2018-06-01T03:40:03.579Z,23.17
2018-06-01T03:42:37.721Z,23.40
2018-06-01T03:45:08.043Z,23.13
2018-06-01T03:47:39.350Z,23.90
2018-06-01T03:50:16.468Z,23.13
2018-06-01T03:52:46.287Z,24.97
2018-06-01T03:55:18.297Z,23.57
2018-06-01T03:57:47.561Z,22.67
2018-06-01T04:02:53.254Z,23.60
2018-06-01T04:05:21.788Z,23.93
2018-06-01T04:07:50.913Z,24.67
2018-06-01T04:10:22.656Z,21.87
2018-06-01T04:12:55.532Z,23.73
2018-06-01T04:15:27.975Z,24.43
2018-06-01T04:17:57.568Z,22.50
2018-06-01T04:20:36.746Z,24.83
2018-06-01T04:23:05.194Z,24.43
2018-06-01T04:25:34.815Z,24.87
2018-06-01T04:28:04.438Z,23.53
2018-06-01T04:30:34.216Z,23.90
2018-06-01T04:33:03.243Z,24.93
2018-06-01T04:35:33.622Z,23.63
2018-06-01T04:38:03.088Z,23.83
2018-06-01T04:40:38.134Z,23.70
2018-06-01T04:43:08.894Z,23.03
2018-06-01T04:45:37.987Z,22.97
2018-06-01T04:48:07.374Z,23.50
2018-06-01T04:50:38.418Z,23.93
2018-06-01T04:53:26.159Z,21.87
2018-06-01T04:56:19.335Z,24.03
2018-06-01T04:59:01.626Z,23.03
2018-06-01T05:01:30.673Z,21.23
2018-06-01T05:03:59.853Z,22.45
2018-06-01T05:06:32.413Z,22.27
2018-06-01T05:09:03.085Z,21.13
2018-06-01T05:11:32.650Z,23.27
2018-06-01T05:14:00.772Z,21.12
2018-06-01T05:16:34.220Z,22.45
2018-06-01T05:19:03.149Z,23.05
2018-06-01T05:21:31.118Z,21.40
2018-06-01T05:24:02.411Z,22.60
2018-06-01T05:26:30.738Z,23.70
2018-06-01T05:28:58.922Z,23.38
2018-06-01T05:31:29.849Z,19.52
2018-06-01T05:33:59.750Z,21.77
2018-06-01T05:36:28.627Z,22.35
2018-06-01T05:38:58.416Z,23.73
2018-06-01T05:41:27.364Z,21.87
2018-06-01T05:43:55.428Z,20.25
2018-06-01T05:46:25.451Z,19.02
2018-06-01T05:48:54.551Z,20.47
2018-06-01T05:51:22.991Z,21.23
2018-06-01T05:53:53.141Z,21.42
2018-06-01T05:56:22.217Z,21.67
2018-06-01T05:58:50.316Z,21.83
2018-06-01T06:01:19.082Z,21.37
2018-06-01T06:03:53.581Z,21.70
2018-06-01T06:06:25.232Z,21.70
2018-06-01T06:08:59.583Z,21.42
2018-06-01T06:11:27.534Z,21.30
2018-06-01T06:13:55.142Z,21.40
2018-06-01T06:16:23.375Z,19.95
2018-06-01T06:18:54.262Z,21.08
2018-06-01T06:21:21.796Z,20.60
2018-06-01T06:23:49.881Z,19.80
2018-06-01T06:26:18.282Z,20.65
2018-06-01T06:28:46.051Z,21.20
2018-06-01T06:31:13.579Z,22.58
2018-06-01T06:33:42.613Z,22.37
2018-06-01T06:36:10.992Z,22.70
2018-06-01T06:38:38.489Z,22.67
2018-06-01T06:41:06.002Z,21.45
2018-06-01T06:43:33.485Z,21.17
2018-06-01T06:46:01.960Z,23.60
2018-06-01T06:48:31.158Z,21.95
2018-06-01T06:50:58.657Z,20.95
2018-06-01T06:53:26.139Z,22.40
2018-06-01T06:55:55.406Z,20.48
2018-06-01T06:58:22.891Z,23.15
2018-06-01T07:00:51.005Z,20.85
2018-06-01T07:03:22.343Z,20.20
2018-06-01T07:05:52.542Z,20.83
2018-06-01T07:08:21.651Z,19.05
2018-06-01T07:10:51.361Z,19.33
2018-06-01T07:13:19.435Z,19.27
2018-06-01T07:15:46.931Z,18.95
2018-06-01T07:18:15.082Z,18.48
2018-06-01T07:20:42.558Z,19.08
2018-06-01T07:23:10.076Z,19.20
2018-06-01T07:25:39.108Z,19.00
2018-06-01T07:28:06.622Z,17.80
2018-06-01T07:30:34.109Z,18.10
2018-06-01T07:33:01.626Z,18.15
2018-06-01T07:35:29.188Z,19.08
2018-06-01T07:37:58.458Z,18.37
2018-06-01T07:40:25.966Z,19.37
2018-06-01T07:42:56.723Z,18.45
2018-06-01T07:45:24.865Z,18.45
2018-06-01T07:48:00.508Z,19.08
2018-06-01T07:50:35.870Z,18.80
2018-06-01T07:53:12.284Z,18.85
2018-06-01T07:55:43.377Z,20.40
2018-06-01T08:00:50.593Z,20.33
2018-06-01T08:03:28.305Z,21.15
2018-06-01T08:06:20.716Z,18.58
2018-06-01T08:08:49.608Z,18.37
2018-06-01T08:11:18.908Z,18.12
2018-06-01T08:13:49.438Z,18.62
2018-06-01T08:16:19.956Z,18.73
2018-06-01T08:21:37.205Z,19.08
2018-06-01T08:24:05.730Z,19.10
2018-06-01T08:26:33.776Z,17.25
2018-06-01T08:29:04.798Z,18.10
2018-06-01T08:31:33.839Z,18.92
2018-06-01T08:34:03.628Z,18.60
2018-06-01T08:36:33.281Z,19.30
2018-06-01T08:39:03.944Z,17.45
2018-06-01T08:41:33.565Z,16.58
2018-06-01T08:44:04.537Z,14.80
2018-06-01T08:46:34.259Z,14.75
2018-06-01T08:49:05.600Z,15.65
2018-06-01T08:51:36.305Z,13.50
2018-06-01T08:54:05.524Z,15.15
2018-06-01T08:56:34.266Z,14.93
2018-06-01T08:59:02.516Z,14.20
2018-06-01T09:01:32.736Z,14.77
2018-06-01T09:04:01.407Z,14.35
2018-06-01T09:06:32.136Z,14.05
2018-06-01T09:09:00.985Z,14.13
2018-06-01T09:11:31.392Z,13.65
2018-06-01T09:14:01.005Z,13.35
2018-06-01T09:16:31.280Z,13.90
2018-06-01T09:18:59.497Z,13.85
2018-06-01T09:21:27.992Z,14.07
2018-06-01T09:23:57.826Z,13.88
2018-06-01T09:26:27.680Z,14.65
2018-06-01T09:28:56.803Z,12.57
2018-06-01T09:31:26.621Z,11.25
2018-06-01T09:33:54.843Z,9.80
2018-06-01T09:36:24.575Z,10.10
2018-06-01T09:38:52.578Z,9.60
2018-06-01T09:41:21.431Z,10.27
2018-06-01T09:43:50.299Z,9.98
2018-06-01T09:46:20.074Z,9.32
2018-06-01T09:48:53.601Z,10.40
2018-06-01T09:51:22.879Z,9.73
2018-06-01T09:53:51.435Z,9.70
2018-06-01T09:56:20.549Z,9.13
2018-06-01T09:58:58.382Z,8.73
2018-06-01T10:01:29.710Z,9.13
2018-06-01T10:03:57.675Z,9.10
2018-06-01T10:06:27.235Z,9.50
2018-06-01T10:08:55.851Z,8.48
2018-06-01T10:11:25.917Z,8.98
2018-06-01T10:13:56.502Z,8.63
2018-06-01T10:16:24.930Z,8.30
2018-06-01T10:18:54.432Z,8.18
2018-06-01T10:21:22.634Z,8.75
2018-06-01T10:23:51.441Z,7.97
2018-06-01T10:26:22.842Z,8.20
2018-06-01T10:28:54.601Z,8.18
2018-06-01T10:31:24.688Z,8.52
2018-06-01T10:33:54.808Z,8.23
2018-06-01T10:36:22.408Z,7.85
2018-06-01T10:38:49.959Z,8.07
2018-06-01T10:41:22.224Z,9.48
2018-06-01T10:43:51.370Z,8.27
2018-06-01T10:46:19.596Z,8.93
2018-06-01T10:48:47.711Z,8.45
2018-06-01T10:51:16.868Z,8.68
2018-06-01T10:53:45.350Z,8.50
2018-06-01T10:56:13.467Z,8.23
2018-06-01T10:58:42.408Z,14.90
2018-06-01T11:01:10.479Z,9.52
2018-06-01T11:03:39.680Z,11.70
2018-06-01T11:06:16.257Z,10.98
2018-06-01T11:08:44.221Z,11.00
2018-06-01T11:11:12.290Z,8.90
2018-06-01T11:13:40.403Z,9.20
2018-06-01T11:16:11.822Z,9.35
2018-06-01T11:18:41.933Z,9.35
2018-06-01T11:21:11.441Z,9.15
2018-06-01T11:23:40.287Z,8.68
2018-06-01T11:26:08.524Z,10.18
2018-06-01T11:28:38.881Z,9.23
2018-06-01T11:31:08.175Z,9.40
2018-06-01T11:33:36.437Z,10.18
2018-06-01T11:36:07.693Z,9.43
2018-06-01T11:38:35.971Z,9.00
2018-06-01T11:41:04.659Z,10.30
2018-06-01T11:43:33.908Z,9.88
2018-06-01T11:46:03.663Z,9.13
2018-06-01T11:48:31.536Z,9.65
2018-06-01T11:50:59.759Z,9.35
2018-06-01T11:53:27.628Z,9.18
2018-06-01T11:55:56.015Z,9.18
2018-06-01T11:58:25.080Z,9.18
2018-06-01T12:01:00.085Z,8.77
2018-06-01T12:03:30.690Z,8.88
2018-06-01T12:05:59.632Z,8.18
2018-06-01T12:08:28.215Z,8.02
2018-06-01T12:10:58.536Z,8.25
2018-06-01T12:13:27.820Z,8.02
2018-06-01T12:15:56.339Z,8.40
2018-06-01T12:18:24.402Z,9.45
2018-06-01T12:20:55.901Z,9.13
2018-06-01T12:23:24.214Z,9.70
2018-06-01T12:25:52.997Z,8.88
2018-06-01T12:28:22.603Z,8.88
2018-06-01T12:30:50.582Z,8.82
2018-06-01T12:33:20.523Z,8.68
2018-06-01T12:35:51.308Z,8.55
2018-06-01T12:38:39.603Z,8.02
2018-06-01T12:41:13.205Z,7.80
2018-06-01T12:43:45.070Z,7.53
2018-06-01T12:46:18.360Z,6.97
2018-06-01T12:48:48.807Z,6.87
2018-06-01T12:51:29.467Z,6.12
2018-06-01T12:54:01.995Z,6.18
2018-06-01T12:56:40.084Z,5.30
2018-06-01T13:02:24.608Z,6.10
2018-06-01T13:04:59.046Z,6.00
2018-06-01T13:07:37.924Z,6.03
2018-06-01T13:10:07.653Z,5.18
2018-06-01T13:12:37.362Z,5.43
2018-06-01T13:15:17.688Z,5.12
2018-06-01T13:18:03.883Z,5.40
2018-06-01T13:20:35.532Z,4.25
2018-06-01T13:23:05.337Z,4.72
2018-06-01T13:25:50.983Z,5.30
2018-06-01T13:28:24.371Z,4.95
2018-06-01T13:33:43.864Z,6.18
2018-06-01T13:36:16.439Z,5.97
2018-06-01T13:38:45.377Z,5.37
2018-06-01T13:41:21.241Z,4.70
2018-06-01T13:43:55.253Z,5.47
2018-06-01T13:46:33.504Z,5.80
2018-06-01T13:49:03.486Z,6.15
2018-06-01T13:51:43.991Z,4.50
2018-06-01T13:54:14.168Z,5.07
2018-06-01T13:56:48.981Z,5.15
2018-06-01T13:59:18.520Z,4.80
2018-06-01T14:01:46.658Z,4.90
2018-06-01T14:04:20.369Z,4.00
2018-06-01T14:06:50.094Z,3.92
2018-06-01T14:11:58.050Z,3.80
2018-06-01T14:14:28.484Z,3.75
2018-06-01T14:16:59.157Z,4.22
2018-06-01T14:19:28.094Z,4.43
2018-06-01T14:21:58.522Z,4.32
2018-06-01T14:24:29.443Z,3.20
2018-06-01T14:27:01.625Z,3.55
2018-06-01T14:29:31.139Z,3.35
2018-06-01T14:32:00.078Z,3.42
2018-06-01T14:34:29.263Z,3.30
2018-06-01T14:37:02.611Z,3.60
2018-06-01T14:39:39.132Z,3.35
2018-06-01T14:44:42.871Z,3.50
2018-06-01T14:47:16.501Z,3.42
2018-06-01T14:49:44.832Z,3.83
2018-06-01T14:52:24.834Z,3.10
2018-06-01T14:54:55.428Z,3.00
2018-06-01T14:57:29.034Z,3.10
2018-06-01T15:00:05.600Z,2.90
2018-06-01T15:02:37.014Z,3.08
2018-06-01T15:05:08.408Z,2.83
2018-06-01T15:07:41.808Z,3.30
2018-06-01T15:10:11.026Z,3.30
2018-06-01T15:12:40.507Z,3.47
2018-06-01T15:15:08.532Z,3.42
2018-06-01T15:17:37.441Z,3.42
2018-06-01T15:20:08.186Z,3.00
2018-06-01T15:22:41.247Z,3.20
2018-06-01T15:25:10.870Z,3.35
2018-06-01T15:27:39.724Z,3.17
2018-06-01T15:30:07.871Z,3.00
2018-06-01T15:32:36.125Z,3.40
2018-06-01T15:35:04.657Z,3.35
2018-06-01T15:37:36.499Z,3.20
2018-06-01T15:40:07.013Z,3.53
2018-06-01T15:42:35.295Z,3.20
2018-06-01T15:45:05.369Z,3.33
2018-06-01T15:47:34.049Z,3.40
2018-06-01T15:50:03.251Z,3.20
2018-06-01T15:52:31.235Z,3.42
2018-06-01T15:54:59.993Z,3.10
2018-06-01T15:57:28.695Z,3.25
2018-06-01T15:59:56.877Z,3.40
2018-06-01T16:02:25.472Z,3.00
2018-06-01T16:04:53.423Z,3.20
2018-06-01T16:07:22.649Z,3.33
2018-06-01T16:09:50.413Z,3.00
2018-06-01T16:12:18.551Z,3.12
2018-06-01T16:14:47.141Z,3.20
2018-06-01T16:17:15.702Z,3.30
2018-06-01T16:19:45.984Z,3.45
2018-06-01T16:22:14.384Z,3.42
2018-06-01T16:24:49.163Z,3.12
2018-06-01T16:27:21.028Z,3.05
2018-06-01T16:29:48.983Z,3.25
2018-06-01T16:32:19.296Z,3.05
2018-06-01T16:34:49.373Z,3.47
2018-06-01T16:37:18.845Z,3.20
2018-06-01T16:39:46.930Z,4.07
2018-06-01T16:42:15.848Z,3.47
2018-06-01T16:44:45.297Z,3.47
2018-06-01T16:47:14.297Z,3.87
2018-06-01T16:49:42.560Z,4.22
2018-06-01T16:52:13.371Z,3.83
2018-06-01T16:54:42.524Z,4.07
2018-06-01T16:57:13.825Z,4.10
2018-06-01T16:59:45.394Z,4.32
2018-06-01T17:02:17.152Z,3.95
2018-06-01T17:04:47.620Z,3.90
2018-06-01T17:10:03.605Z,3.95
2018-06-01T17:12:31.566Z,4.10
2018-06-01T17:15:00.407Z,4.97
2018-06-01T17:17:30.620Z,3.90
2018-06-01T17:20:09.032Z,3.15
2018-06-01T17:22:39.540Z,3.40
2018-06-01T17:25:14.287Z,4.47
2018-06-01T17:27:42.515Z,3.10
2018-06-01T17:30:10.287Z,3.20
2018-06-01T17:32:38.226Z,3.50
2018-06-01T17:35:06.336Z,3.47
2018-06-01T17:37:36.694Z,3.50
2018-06-01T17:40:04.702Z,3.53
2018-06-01T17:42:33.271Z,3.40
2018-06-01T17:45:01.151Z,3.37
2018-06-01T17:47:33.960Z,3.10
2018-06-01T17:50:03.077Z,2.85
2018-06-01T17:52:34.510Z,3.05
2018-06-01T17:55:03.423Z,2.97
2018-06-01T17:57:31.295Z,2.92
2018-06-01T18:00:05.735Z,3.05
2018-06-01T18:49:27.574Z,2.40
2018-06-01T18:51:56.416Z,2.80
2018-06-01T18:54:48.329Z,2.55
2018-06-01T18:57:30.594Z,2.80
2018-06-01T18:59:59.314Z,2.70
2018-06-01T19:02:28.606Z,3.03
2018-06-01T19:04:57.222Z,3.03
2018-06-01T19:07:26.356Z,2.62
2018-06-01T19:09:58.548Z,2.20
2018-06-01T19:12:26.617Z,2.40
2018-06-01T19:14:56.251Z,2.00
2018-06-01T19:17:24.165Z,2.30
2018-06-01T19:19:52.142Z,2.15
2018-06-01T19:22:20.560Z,2.35
2018-06-01T19:24:48.987Z,2.30
2018-06-01T19:27:16.836Z,2.30
2018-06-01T19:29:46.227Z,2.00
2018-06-01T19:32:14.065Z,2.20
2018-06-01T19:35:05.060Z,2.12
2018-06-01T19:37:35.617Z,2.10
2018-06-01T19:40:05.201Z,2.20
2018-06-01T19:42:47.769Z,2.50
2018-06-01T19:45:18.059Z,2.08
2018-06-01T19:47:50.247Z,1.70
2018-06-01T19:50:20.568Z,1.95
2018-06-01T19:52:50.820Z,1.92
2018-06-01T19:55:19.518Z,1.90
2018-06-01T19:57:47.843Z,1.60
2018-06-01T20:00:26.772Z,1.55
2018-06-01T20:02:55.678Z,1.80
2018-06-01T20:05:28.620Z,1.73
2018-06-01T20:08:02.100Z,1.73
2018-06-01T20:10:30.431Z,1.67
2018-06-01T20:12:58.298Z,1.70
2018-06-01T20:15:26.665Z,1.77
2018-06-01T20:17:56.216Z,1.70
2018-06-01T20:20:24.396Z,1.80
2018-06-01T20:22:55.922Z,1.80
2018-06-01T20:25:38.824Z,1.80
2018-06-01T20:28:07.331Z,2.00
2018-06-01T20:30:36.400Z,1.70
2018-06-01T20:33:05.623Z,2.20
2018-06-01T20:35:34.002Z,1.93
2018-06-01T20:38:04.966Z,1.80
2018-06-01T20:40:34.255Z,1.85
2018-06-01T20:43:02.712Z,2.03
2018-06-01T20:45:31.108Z,2.00
2018-06-01T20:48:00.698Z,1.97
2018-06-01T20:50:30.623Z,1.80
2018-06-01T20:52:59.284Z,2.10
2018-06-01T20:55:27.373Z,1.83
2018-06-01T20:57:55.714Z,1.80
2018-06-01T21:00:23.421Z,1.80
2018-06-01T21:02:51.471Z,2.20
2018-06-01T21:05:20.169Z,1.90
2018-06-01T21:07:48.405Z,2.10
2018-06-01T21:10:17.026Z,2.13
2018-06-01T21:12:44.941Z,2.20
2018-06-01T21:15:13.730Z,2.20
2018-06-01T21:17:42.759Z,2.20
2018-06-01T21:20:11.759Z,1.90
2018-06-01T21:22:41.197Z,2.03
2018-06-01T21:25:10.569Z,1.93
2018-06-01T21:27:38.894Z,1.90
2018-06-01T21:30:09.850Z,1.90
2018-06-01T21:32:37.741Z,2.10
2018-06-01T21:35:05.732Z,2.00
2018-06-01T21:37:34.756Z,2.10
2018-06-01T21:40:02.705Z,1.90
2018-06-01T21:42:35.049Z,1.90
2018-06-01T21:45:05.399Z,2.00
2018-06-01T21:47:33.371Z,2.10
2018-06-01T21:50:01.419Z,2.00
2018-06-01T21:52:30.059Z,1.70
2018-06-01T21:54:58.007Z,1.80
2018-06-01T21:57:26.237Z,1.67
2018-06-01T21:59:55.557Z,1.90
2018-06-01T22:02:24.910Z,2.00
2018-06-01T22:04:53.128Z,2.03
2018-06-01T22:07:21.135Z,2.07
2018-06-01T22:09:49.129Z,1.70
2018-06-01T22:12:18.119Z,2.03
2018-06-01T22:14:46.404Z,2.10
2018-06-01T22:17:15.284Z,2.17
2018-06-01T22:19:43.856Z,2.30
2018-06-01T22:22:12.020Z,2.30
2018-06-01T22:24:41.649Z,1.70
2018-06-01T22:27:09.694Z,2.00
2018-06-01T22:29:37.681Z,2.10
2018-06-01T22:32:06.373Z,2.13
2018-06-01T22:34:34.778Z,2.10
2018-06-01T22:37:03.058Z,2.37
2018-06-01T22:39:33.597Z,2.20
2018-06-01T22:42:05.673Z,2.13
2018-06-01T22:44:33.639Z,2.40
2018-06-01T22:47:01.511Z,2.20
2018-06-01T22:49:30.364Z,2.50
2018-06-01T22:52:01.162Z,2.10
2018-06-01T22:54:33.300Z,2.33
2018-06-01T22:57:06.165Z,2.10
2018-06-01T22:59:36.637Z,2.23
2018-06-01T23:02:04.731Z,2.33
2018-06-01T23:04:32.711Z,2.20
2018-06-01T23:07:00.638Z,2.33
2018-06-01T23:09:28.939Z,2.40
2018-06-01T23:11:59.369Z,2.67
2018-06-01T23:14:27.979Z,2.63
2018-06-01T23:16:57.185Z,2.47
2018-06-01T23:19:24.954Z,2.43
2018-06-01T23:21:54.690Z,2.60
2018-06-01T23:24:23.469Z,2.60
2018-06-01T23:26:52.100Z,2.40
2018-06-01T23:29:20.270Z,2.83
2018-06-01T23:31:48.363Z,2.67
2018-06-01T23:34:18.391Z,2.90
2018-06-01T23:36:50.735Z,2.90
2018-06-01T23:39:20.678Z,2.80
2018-06-01T23:41:49.167Z,2.80
2018-06-01T23:44:17.373Z,2.50
2018-06-01T23:46:45.616Z,2.90
2018-06-01T23:49:13.869Z,2.87
2018-06-01T23:51:45.891Z,2.87
2018-06-01T23:54:14.094Z,2.87
2018-06-01T23:56:43.004Z,3.47
2018-06-01T23:59:11.532Z,3.07
